sensor_id;sensor_type;location;lat;lon;timestamp;temperature;humidity
25550;DHT22;13444;50.562;7.262;2023-04-01T00:01:46;11.90;99.90
25550;DHT22;13444;50.562;7.262;2023-04-01T00:04:12;11.90;99.90
25550;DHT22;13444;50.562;7.262;2023-04-01T00:06:37;11.80;99.90
25550;DHT22;13444;50.562;7.262;2023-04-01T00:09:03;11.80;99.90
25550;DHT22;13444;50.562;7.262;2023-04-01T00:11:29;11.90;99.90
25550;DHT22;13444;50.562;7.262;2023-04-01T00:13:54;11.80;99.90
25550;DHT22;13444;50.562;7.262;2023-04-01T00:16:20;11.80;99.90
25550;DHT22;13444;50.562;7.262;2023-04-01T00:18:46;11.80;99.90
25550;DHT22;13444;50.562;7.262;2023-04-01T00:21:15;11.80;99.90
25550;DHT22;13444;50.562;7.262;2023-04-01T00:23:41;11.80;99.90
25550;DHT22;13444;50.562;7.262;2023-04-01T00:26:06;11.80;99.90
25550;DHT22;13444;50.562;7.262;2023-04-01T00:28:34;11.70;99.90
25550;DHT22;13444;50.562;7.262;2023-04-01T00:31:05;11.70;99.90
25550;DHT22;13444;50.562;7.262;2023-04-01T00:33:30;11.70;99.90
25550;DHT22;13444;50.562;7.262;2023-04-01T00:35:56;11.80;99.90
25550;DHT22;13444;50.562;7.262;2023-04-01T00:38:30;11.70;99.90
25550;DHT22;13444;50.562;7.262;2023-04-01T00:40:57;11.70;99.90
25550;DHT22;13444;50.562;7.262;2023-04-01T00:43:23;11.70;99.90
25550;DHT22;13444;50.562;7.262;2023-04-01T00:45:49;11.70;99.90
25550;DHT22;13444;50.562;7.262;2023-04-01T00:48:18;11.70;99.90
25550;DHT22;13444;50.562;7.262;2023-04-01T00:50:49;11.70;99.90
25550;DHT22;13444;50.562;7.262;2023-04-01T00:53:17;11.70;99.90
25550;DHT22;13444;50.562;7.262;2023-04-01T00:55:50;11.70;99.90
25550;DHT22;13444;50.562;7.262;2023-04-01T00:58:18;11.70;99.90
25550;DHT22;13444;50.562;7.262;2023-04-01T01:00:48;11.70;99.90
25550;DHT22;13444;50.562;7.262;2023-04-01T01:03:14;11.70;99.90
25550;DHT22;13444;50.562;7.262;2023-04-01T01:06:08;11.70;99.90
25550;DHT22;13444;50.562;7.262;2023-04-01T01:09:33;11.70;99.90
25550;DHT22;13444;50.562;7.262;2023-04-01T01:11:52;11.70;99.90
25550;DHT22;13444;50.562;7.262;2023-04-01T01:14:25;11.70;99.90
25550;DHT22;13444;50.562;7.262;2023-04-01T01:17:00;11.70;99.90
25550;DHT22;13444;50.562;7.262;2023-04-01T01:19:49;11.70;99.90
25550;DHT22;13444;50.562;7.262;2023-04-01T01:27:29;11.60;99.90
25550;DHT22;13444;50.562;7.262;2023-04-01T01:33:13;11.60;99.90
25550;DHT22;13444;50.562;7.262;2023-04-01T01:35:46;11.50;99.90
25550;DHT22;13444;50.562;7.262;2023-04-01T01:38:18;11.50;99.90
25550;DHT22;13444;50.562;7.262;2023-04-01T01:40:46;11.50;99.90
25550;DHT22;13444;50.562;7.262;2023-04-01T01:43:18;11.50;99.90
25550;DHT22;13444;50.562;7.262;2023-04-01T01:45:48;11.60;99.90
25550;DHT22;13444;50.562;7.262;2023-04-01T01:48:15;11.50;99.90
25550;DHT22;13444;50.562;7.262;2023-04-01T01:50:43;11.50;99.90
25550;DHT22;13444;50.562;7.262;2023-04-01T01:53:12;11.50;99.90
25550;DHT22;13444;50.562;7.262;2023-04-01T01:55:41;11.50;99.90
25550;DHT22;13444;50.562;7.262;2023-04-01T01:58:29;11.50;99.90
25550;DHT22;13444;50.562;7.262;2023-04-01T02:01:00;11.50;99.90
25550;DHT22;13444;50.562;7.262;2023-04-01T02:03:29;11.50;99.90
25550;DHT22;13444;50.562;7.262;2023-04-01T02:05:59;11.50;99.90
25550;DHT22;13444;50.562;7.262;2023-04-01T02:08:55;11.50;99.90
25550;DHT22;13444;50.562;7.262;2023-04-01T02:11:43;11.50;99.90
25550;DHT22;13444;50.562;7.262;2023-04-01T02:14:15;11.50;99.90
25550;DHT22;13444;50.562;7.262;2023-04-01T02:19:09;11.50;99.90
25550;DHT22;13444;50.562;7.262;2023-04-01T02:21:36;11.50;99.90
25550;DHT22;13444;50.562;7.262;2023-04-01T02:24:06;11.50;99.90
25550;DHT22;13444;50.562;7.262;2023-04-01T02:26:34;11.50;99.90
25550;DHT22;13444;50.562;7.262;2023-04-01T02:29:01;11.40;99.90
25550;DHT22;13444;50.562;7.262;2023-04-01T02:31:27;11.50;99.90
25550;DHT22;13444;50.562;7.262;2023-04-01T02:33:53;11.50;99.90
25550;DHT22;13444;50.562;7.262;2023-04-01T02:36:19;11.50;99.90
25550;DHT22;13444;50.562;7.262;2023-04-01T02:38:46;11.60;99.90
25550;DHT22;13444;50.562;7.262;2023-04-01T02:41:13;11.50;99.90
25550;DHT22;13444;50.562;7.262;2023-04-01T02:43:38;11.50;99.90
25550;DHT22;13444;50.562;7.262;2023-04-01T02:46:05;11.50;99.90
25550;DHT22;13444;50.562;7.262;2023-04-01T02:48:31;11.50;99.90
25550;DHT22;13444;50.562;7.262;2023-04-01T02:50:57;11.50;99.90
25550;DHT22;13444;50.562;7.262;2023-04-01T02:53:22;11.50;99.90
25550;DHT22;13444;50.562;7.262;2023-04-01T02:55:48;11.50;99.90
25550;DHT22;13444;50.562;7.262;2023-04-01T02:58:16;11.50;99.90
25550;DHT22;13444;50.562;7.262;2023-04-01T03:00:41;11.50;99.90
25550;DHT22;13444;50.562;7.262;2023-04-01T03:03:07;11.50;99.90
25550;DHT22;13444;50.562;7.262;2023-04-01T03:05:33;11.40;99.90
25550;DHT22;13444;50.562;7.262;2023-04-01T03:07:59;11.40;99.90
25550;DHT22;13444;50.562;7.262;2023-04-01T03:10:24;11.40;99.90
25550;DHT22;13444;50.562;7.262;2023-04-01T03:12:50;11.40;99.90
25550;DHT22;13444;50.562;7.262;2023-04-01T03:15:15;11.40;99.90
25550;DHT22;13444;50.562;7.262;2023-04-01T03:17:42;11.40;99.90
25550;DHT22;13444;50.562;7.262;2023-04-01T03:20:09;11.30;99.90
25550;DHT22;13444;50.562;7.262;2023-04-01T03:22:36;11.30;99.90
25550;DHT22;13444;50.562;7.262;2023-04-01T03:25:02;11.30;99.90
25550;DHT22;13444;50.562;7.262;2023-04-01T03:27:28;11.30;99.90
25550;DHT22;13444;50.562;7.262;2023-04-01T03:29:54;11.30;99.90
25550;DHT22;13444;50.562;7.262;2023-04-01T03:32:19;11.30;99.90
25550;DHT22;13444;50.562;7.262;2023-04-01T03:34:45;11.30;99.90
25550;DHT22;13444;50.562;7.262;2023-04-01T03:37:10;11.30;99.90
25550;DHT22;13444;50.562;7.262;2023-04-01T03:39:36;11.30;99.90
25550;DHT22;13444;50.562;7.262;2023-04-01T03:42:01;11.30;99.90
25550;DHT22;13444;50.562;7.262;2023-04-01T03:44:31;11.20;99.90
25550;DHT22;13444;50.562;7.262;2023-04-01T03:46:57;11.30;99.90
25550;DHT22;13444;50.562;7.262;2023-04-01T03:49:22;11.30;99.90
25550;DHT22;13444;50.562;7.262;2023-04-01T03:51:48;11.30;99.90
25550;DHT22;13444;50.562;7.262;2023-04-01T03:54:13;11.30;99.90
25550;DHT22;13444;50.562;7.262;2023-04-01T03:56:39;11.30;99.90
25550;DHT22;13444;50.562;7.262;2023-04-01T03:59:06;11.30;99.90
25550;DHT22;13444;50.562;7.262;2023-04-01T04:01:32;11.30;99.90
25550;DHT22;13444;50.562;7.262;2023-04-01T04:03:58;11.30;99.90
25550;DHT22;13444;50.562;7.262;2023-04-01T04:06:25;11.20;99.90
25550;DHT22;13444;50.562;7.262;2023-04-01T04:08:50;11.20;99.90
25550;DHT22;13444;50.562;7.262;2023-04-01T04:11:16;11.30;99.90
25550;DHT22;13444;50.562;7.262;2023-04-01T04:13:42;11.30;99.90
25550;DHT22;13444;50.562;7.262;2023-04-01T04:16:09;11.30;99.90
25550;DHT22;13444;50.562;7.262;2023-04-01T04:18:36;11.20;99.90
25550;DHT22;13444;50.562;7.262;2023-04-01T04:21:02;11.20;99.90
25550;DHT22;13444;50.562;7.262;2023-04-01T04:23:27;11.20;99.90
25550;DHT22;13444;50.562;7.262;2023-04-01T04:25:56;11.20;99.90
25550;DHT22;13444;50.562;7.262;2023-04-01T04:28:21;11.30;99.90
25550;DHT22;13444;50.562;7.262;2023-04-01T04:30:47;11.20;99.90
25550;DHT22;13444;50.562;7.262;2023-04-01T04:33:13;11.20;99.90
25550;DHT22;13444;50.562;7.262;2023-04-01T04:35:38;11.20;99.90
25550;DHT22;13444;50.562;7.262;2023-04-01T04:38:04;11.20;99.90
25550;DHT22;13444;50.562;7.262;2023-04-01T04:40:29;11.20;99.90
25550;DHT22;13444;50.562;7.262;2023-04-01T04:42:55;11.20;99.90
25550;DHT22;13444;50.562;7.262;2023-04-01T04:45:20;11.20;99.90
25550;DHT22;13444;50.562;7.262;2023-04-01T04:47:46;11.20;99.90
25550;DHT22;13444;50.562;7.262;2023-04-01T04:50:11;11.20;99.90
25550;DHT22;13444;50.562;7.262;2023-04-01T04:52:38;11.20;99.90
25550;DHT22;13444;50.562;7.262;2023-04-01T04:55:04;11.20;99.90
25550;DHT22;13444;50.562;7.262;2023-04-01T04:57:29;11.10;99.90
25550;DHT22;13444;50.562;7.262;2023-04-01T04:59:55;11.10;99.90
25550;DHT22;13444;50.562;7.262;2023-04-01T05:02:21;11.10;99.90
25550;DHT22;13444;50.562;7.262;2023-04-01T05:04:46;11.10;99.90
25550;DHT22;13444;50.562;7.262;2023-04-01T05:07:12;11.10;99.90
25550;DHT22;13444;50.562;7.262;2023-04-01T05:09:37;11.20;99.90
25550;DHT22;13444;50.562;7.262;2023-04-01T05:12:03;11.20;99.90
25550;DHT22;13444;50.562;7.262;2023-04-01T05:14:28;11.20;99.90
25550;DHT22;13444;50.562;7.262;2023-04-01T05:16:54;11.20;99.90
25550;DHT22;13444;50.562;7.262;2023-04-01T05:19:20;11.20;99.90
25550;DHT22;13444;50.562;7.262;2023-04-01T05:21:46;11.20;99.90
25550;DHT22;13444;50.562;7.262;2023-04-01T05:24:11;11.20;99.90
25550;DHT22;13444;50.562;7.262;2023-04-01T05:26:37;11.20;99.90
25550;DHT22;13444;50.562;7.262;2023-04-01T05:29:03;11.20;99.90
25550;DHT22;13444;50.562;7.262;2023-04-01T05:31:29;11.20;99.90
25550;DHT22;13444;50.562;7.262;2023-04-01T05:33:55;11.20;99.90
25550;DHT22;13444;50.562;7.262;2023-04-01T05:36:21;11.20;99.90
25550;DHT22;13444;50.562;7.262;2023-04-01T05:38:46;11.10;99.90
25550;DHT22;13444;50.562;7.262;2023-04-01T05:41:15;11.10;99.90
25550;DHT22;13444;50.562;7.262;2023-04-01T05:43:42;11.10;99.90
25550;DHT22;13444;50.562;7.262;2023-04-01T05:46:07;11.10;99.90
25550;DHT22;13444;50.562;7.262;2023-04-01T05:48:34;11.10;99.90
25550;DHT22;13444;50.562;7.262;2023-04-01T05:51:01;11.10;99.90
25550;DHT22;13444;50.562;7.262;2023-04-01T05:53:26;11.10;99.90
25550;DHT22;13444;50.562;7.262;2023-04-01T05:55:52;11.10;99.90
25550;DHT22;13444;50.562;7.262;2023-04-01T05:58:17;11.20;99.90
25550;DHT22;13444;50.562;7.262;2023-04-01T06:00:43;11.20;99.90
25550;DHT22;13444;50.562;7.262;2023-04-01T06:03:09;11.20;99.90
25550;DHT22;13444;50.562;7.262;2023-04-01T06:05:43;11.30;99.90
25550;DHT22;13444;50.562;7.262;2023-04-01T06:08:12;11.30;99.90
25550;DHT22;13444;50.562;7.262;2023-04-01T06:13:46;11.40;99.90
25550;DHT22;13444;50.562;7.262;2023-04-01T06:25:16;11.30;99.90
25550;DHT22;13444;50.562;7.262;2023-04-01T06:28:00;11.30;99.90
25550;DHT22;13444;50.562;7.262;2023-04-01T06:30:47;11.40;99.90
25550;DHT22;13444;50.562;7.262;2023-04-01T06:33:39;11.40;99.90
25550;DHT22;13444;50.562;7.262;2023-04-01T06:41:44;11.50;99.90
25550;DHT22;13444;50.562;7.262;2023-04-01T06:44:27;11.50;99.90
25550;DHT22;13444;50.562;7.262;2023-04-01T06:49:44;11.60;99.90
25550;DHT22;13444;50.562;7.262;2023-04-01T06:52:37;11.60;99.90
25550;DHT22;13444;50.562;7.262;2023-04-01T06:55:37;11.70;99.90
25550;DHT22;13444;50.562;7.262;2023-04-01T06:58:19;11.70;99.90
25550;DHT22;13444;50.562;7.262;2023-04-01T07:00:48;11.70;99.90
25550;DHT22;13444;50.562;7.262;2023-04-01T07:03:23;11.70;99.90
25550;DHT22;13444;50.562;7.262;2023-04-01T07:05:53;11.80;99.90
25550;DHT22;13444;50.562;7.262;2023-04-01T07:08:25;11.80;99.90
25550;DHT22;13444;50.562;7.262;2023-04-01T07:11:04;11.80;99.90
25550;DHT22;13444;50.562;7.262;2023-04-01T07:13:45;11.90;99.90
25550;DHT22;13444;50.562;7.262;2023-04-01T07:16:30;11.90;99.90
25550;DHT22;13444;50.562;7.262;2023-04-01T07:19:08;12.00;99.90
25550;DHT22;13444;50.562;7.262;2023-04-01T07:21:44;12.00;99.90
25550;DHT22;13444;50.562;7.262;2023-04-01T07:24:26;12.10;99.90
25550;DHT22;13444;50.562;7.262;2023-04-01T07:26:55;12.10;99.90
25550;DHT22;13444;50.562;7.262;2023-04-01T07:29:21;12.10;99.90
25550;DHT22;13444;50.562;7.262;2023-04-01T07:34:32;12.10;99.90
25550;DHT22;13444;50.562;7.262;2023-04-01T07:39:43;12.30;99.90
25550;DHT22;13444;50.562;7.262;2023-04-01T07:42:39;12.30;99.90
25550;DHT22;13444;50.562;7.262;2023-04-01T07:45:23;12.30;99.90
25550;DHT22;13444;50.562;7.262;2023-04-01T07:48:09;12.30;99.90
25550;DHT22;13444;50.562;7.262;2023-04-01T07:53:14;12.40;99.90
25550;DHT22;13444;50.562;7.262;2023-04-01T07:58:48;12.30;99.90
25550;DHT22;13444;50.562;7.262;2023-04-01T08:04:36;12.30;99.90
25550;DHT22;13444;50.562;7.262;2023-04-01T08:07:13;12.20;99.90
25550;DHT22;13444;50.562;7.262;2023-04-01T08:09:48;12.20;99.90
25550;DHT22;13444;50.562;7.262;2023-04-01T08:15:34;12.20;99.90
25550;DHT22;13444;50.562;7.262;2023-04-01T08:18:18;12.20;99.90
25550;DHT22;13444;50.562;7.262;2023-04-01T08:20:48;12.20;99.90
25550;DHT22;13444;50.562;7.262;2023-04-01T08:25:52;12.30;99.90
25550;DHT22;13444;50.562;7.262;2023-04-01T08:28:36;12.30;99.90
25550;DHT22;13444;50.562;7.262;2023-04-01T08:31:11;12.30;99.90
25550;DHT22;13444;50.562;7.262;2023-04-01T08:33:39;12.40;99.90
25550;DHT22;13444;50.562;7.262;2023-04-01T08:36:19;12.40;99.90
25550;DHT22;13444;50.562;7.262;2023-04-01T08:44:45;12.40;99.90
25550;DHT22;13444;50.562;7.262;2023-04-01T08:47:28;12.50;99.90
25550;DHT22;13444;50.562;7.262;2023-04-01T08:50:41;12.50;99.90
25550;DHT22;13444;50.562;7.262;2023-04-01T08:53:33;12.50;99.90
25550;DHT22;13444;50.562;7.262;2023-04-01T08:56:17;12.60;99.90
25550;DHT22;13444;50.562;7.262;2023-04-01T09:04:47;12.70;99.90
25550;DHT22;13444;50.562;7.262;2023-04-01T09:08:00;12.70;99.90
25550;DHT22;13444;50.562;7.262;2023-04-01T09:13:43;12.70;99.90
25550;DHT22;13444;50.562;7.262;2023-04-01T09:16:36;12.70;99.90
25550;DHT22;13444;50.562;7.262;2023-04-01T09:29:52;13.30;99.90
25550;DHT22;13444;50.562;7.262;2023-04-01T09:32:52;13.30;99.90
25550;DHT22;13444;50.562;7.262;2023-04-01T09:35:45;13.30;99.90
25550;DHT22;13444;50.562;7.262;2023-04-01T09:41:26;13.20;99.90
25550;DHT22;13444;50.562;7.262;2023-04-01T09:44:18;13.10;99.90
25550;DHT22;13444;50.562;7.262;2023-04-01T09:47:16;13.10;99.90
25550;DHT22;13444;50.562;7.262;2023-04-01T09:55:56;13.20;99.90
25550;DHT22;13444;50.562;7.262;2023-04-01T10:01:12;13.20;99.90
25550;DHT22;13444;50.562;7.262;2023-04-01T10:06:58;13.30;99.90
25550;DHT22;13444;50.562;7.262;2023-04-01T10:09:38;13.30;99.90
25550;DHT22;13444;50.562;7.262;2023-04-01T10:18:17;13.30;99.90
25550;DHT22;13444;50.562;7.262;2023-04-01T10:21:22;13.30;99.90
25550;DHT22;13444;50.562;7.262;2023-04-01T10:24:10;13.30;99.90
25550;DHT22;13444;50.562;7.262;2023-04-01T10:29:23;13.30;99.90
25550;DHT22;13444;50.562;7.262;2023-04-01T10:38:16;13.30;99.90
25550;DHT22;13444;50.562;7.262;2023-04-01T10:40:31;13.20;99.90
25550;DHT22;13444;50.562;7.262;2023-04-01T10:43:27;13.20;99.90
25550;DHT22;13444;50.562;7.262;2023-04-01T10:54:49;13.20;99.90
25550;DHT22;13444;50.562;7.262;2023-04-01T11:09:19;14.30;99.90
25550;DHT22;13444;50.562;7.262;2023-04-01T11:12:13;14.50;99.90
25550;DHT22;13444;50.562;7.262;2023-04-01T11:15:10;14.60;99.90
25550;DHT22;13444;50.562;7.262;2023-04-01T11:26:46;14.80;99.90
25550;DHT22;13444;50.562;7.262;2023-04-01T11:32:12;14.70;99.90
25550;DHT22;13444;50.562;7.262;2023-04-01T11:37:53;14.70;99.90
25550;DHT22;13444;50.562;7.262;2023-04-01T11:40:30;14.60;99.90
25550;DHT22;13444;50.562;7.262;2023-04-01T11:43:52;14.60;99.90
25550;DHT22;13444;50.562;7.262;2023-04-01T11:59:38;14.80;99.90
25550;DHT22;13444;50.562;7.262;2023-04-01T12:05:28;14.80;99.90
25550;DHT22;13444;50.562;7.262;2023-04-01T12:08:26;14.80;99.90
25550;DHT22;13444;50.562;7.262;2023-04-01T12:11:44;14.80;99.90
25550;DHT22;13444;50.562;7.262;2023-04-01T12:19:35;14.80;99.90
25550;DHT22;13444;50.562;7.262;2023-04-01T12:22:28;14.80;99.90
25550;DHT22;13444;50.562;7.262;2023-04-01T12:25:43;14.90;99.90
25550;DHT22;13444;50.562;7.262;2023-04-01T12:28:25;14.90;99.90
25550;DHT22;13444;50.562;7.262;2023-04-01T12:36:22;14.80;99.90
25550;DHT22;13444;50.562;7.262;2023-04-01T12:39:16;14.90;99.90
25550;DHT22;13444;50.562;7.262;2023-04-01T12:44:33;14.80;99.90
25550;DHT22;13444;50.562;7.262;2023-04-01T12:50:27;14.70;99.90
25550;DHT22;13444;50.562;7.262;2023-04-01T12:53:24;14.80;99.90
25550;DHT22;13444;50.562;7.262;2023-04-01T12:55:56;14.90;99.90
25550;DHT22;13444;50.562;7.262;2023-04-01T12:58:48;14.90;99.90
25550;DHT22;13444;50.562;7.262;2023-04-01T13:01:30;14.90;99.90
25550;DHT22;13444;50.562;7.262;2023-04-01T13:12:44;14.60;99.90
25550;DHT22;13444;50.562;7.262;2023-04-01T13:15:28;14.60;99.90
25550;DHT22;13444;50.562;7.262;2023-04-01T13:20:44;14.30;99.90
25550;DHT22;13444;50.562;7.262;2023-04-01T13:23:25;14.30;99.90
25550;DHT22;13444;50.562;7.262;2023-04-01T13:28:51;14.10;99.90
25550;DHT22;13444;50.562;7.262;2023-04-01T13:36:46;14.00;99.90
25550;DHT22;13444;50.562;7.262;2023-04-01T13:42:24;14.00;99.90
25550;DHT22;13444;50.562;7.262;2023-04-01T13:45:02;14.10;99.90
25550;DHT22;13444;50.562;7.262;2023-04-01T13:50:43;14.10;99.90
25550;DHT22;13444;50.562;7.262;2023-04-01T13:53:49;13.90;99.90
25550;DHT22;13444;50.562;7.262;2023-04-01T13:56:32;13.80;99.90
25550;DHT22;13444;50.562;7.262;2023-04-01T14:08:20;14.10;99.90
25550;DHT22;13444;50.562;7.262;2023-04-01T14:11:02;14.30;99.90
25550;DHT22;13444;50.562;7.262;2023-04-01T14:25:22;14.60;99.90
25550;DHT22;13444;50.562;7.262;2023-04-01T14:48:15;14.30;99.90
25550;DHT22;13444;50.562;7.262;2023-04-01T14:50:46;14.30;99.90
25550;DHT22;13444;50.562;7.262;2023-04-01T14:55:49;14.30;99.90
25550;DHT22;13444;50.562;7.262;2023-04-01T14:58:18;14.30;99.90
25550;DHT22;13444;50.562;7.262;2023-04-01T15:03:38;14.20;99.90
25550;DHT22;13444;50.562;7.262;2023-04-01T15:11:53;13.90;99.90
25550;DHT22;13444;50.562;7.262;2023-04-01T15:14:41;13.90;99.90
25550;DHT22;13444;50.562;7.262;2023-04-01T15:20:43;13.90;99.90
25550;DHT22;13444;50.562;7.262;2023-04-01T15:24:12;13.90;99.90
25550;DHT22;13444;50.562;7.262;2023-04-01T15:29:23;13.90;99.90
25550;DHT22;13444;50.562;7.262;2023-04-01T15:31:59;13.90;99.90
25550;DHT22;13444;50.562;7.262;2023-04-01T15:34:53;13.80;99.90
25550;DHT22;13444;50.562;7.262;2023-04-01T15:37:42;13.70;99.90
25550;DHT22;13444;50.562;7.262;2023-04-01T15:40:25;13.60;99.90
25550;DHT22;13444;50.562;7.262;2023-04-01T15:45:43;13.50;99.90
25550;DHT22;13444;50.562;7.262;2023-04-01T15:54:06;13.30;99.90
25550;DHT22;13444;50.562;7.262;2023-04-01T15:57:03;13.30;99.90
25550;DHT22;13444;50.562;7.262;2023-04-01T16:00:13;13.30;99.90
25550;DHT22;13444;50.562;7.262;2023-04-01T16:03:14;13.20;99.90
25550;DHT22;13444;50.562;7.262;2023-04-01T16:06:01;13.00;99.90
25550;DHT22;13444;50.562;7.262;2023-04-01T16:11:48;13.00;99.90
25550;DHT22;13444;50.562;7.262;2023-04-01T16:17:32;13.00;99.90
25550;DHT22;13444;50.562;7.262;2023-04-01T16:22:56;12.90;99.90
25550;DHT22;13444;50.562;7.262;2023-04-01T16:25:40;12.90;99.90
25550;DHT22;13444;50.562;7.262;2023-04-01T16:28:34;12.90;99.90
25550;DHT22;13444;50.562;7.262;2023-04-01T16:31:15;12.90;99.90
25550;DHT22;13444;50.562;7.262;2023-04-01T16:34:06;12.90;99.90
25550;DHT22;13444;50.562;7.262;2023-04-01T16:39:08;12.80;99.90
25550;DHT22;13444;50.562;7.262;2023-04-01T16:41:38;12.70;99.90
25550;DHT22;13444;50.562;7.262;2023-04-01T16:44:24;12.70;99.90
25550;DHT22;13444;50.562;7.262;2023-04-01T16:47:07;12.50;99.90
25550;DHT22;13444;50.562;7.262;2023-04-01T16:49:42;12.50;99.90
25550;DHT22;13444;50.562;7.262;2023-04-01T16:59:37;12.30;99.90
25550;DHT22;13444;50.562;7.262;2023-04-01T17:05:01;12.30;99.90
25550;DHT22;13444;50.562;7.262;2023-04-01T17:07:38;12.30;99.90
25550;DHT22;13444;50.562;7.262;2023-04-01T17:10:25;12.20;99.90
25550;DHT22;13444;50.562;7.262;2023-04-01T17:15:55;12.10;99.90
25550;DHT22;13444;50.562;7.262;2023-04-01T17:21:13;12.10;99.90
25550;DHT22;13444;50.562;7.262;2023-04-01T17:23:51;12.00;99.90
25550;DHT22;13444;50.562;7.262;2023-04-01T17:29:36;12.00;99.90
25550;DHT22;13444;50.562;7.262;2023-04-01T17:31:54;12.00;99.90
25550;DHT22;13444;50.562;7.262;2023-04-01T17:37:27;11.90;99.90
25550;DHT22;13444;50.562;7.262;2023-04-01T17:40:20;11.90;99.90
25550;DHT22;13444;50.562;7.262;2023-04-01T17:43:14;11.90;99.90
25550;DHT22;13444;50.562;7.262;2023-04-01T17:46:21;11.90;99.90
25550;DHT22;13444;50.562;7.262;2023-04-01T17:49:19;11.90;99.90
25550;DHT22;13444;50.562;7.262;2023-04-01T18:00:26;11.80;99.90
25550;DHT22;13444;50.562;7.262;2023-04-01T18:03:50;11.70;99.90
25550;DHT22;13444;50.562;7.262;2023-04-01T18:08:59;11.70;99.90
25550;DHT22;13444;50.562;7.262;2023-04-01T18:11:54;11.70;99.90
25550;DHT22;13444;50.562;7.262;2023-04-01T18:20:28;11.60;99.90
25550;DHT22;13444;50.562;7.262;2023-04-01T18:23:00;11.60;99.90
25550;DHT22;13444;50.562;7.262;2023-04-01T18:25:41;11.60;99.90
25550;DHT22;13444;50.562;7.262;2023-04-01T18:31:08;11.50;99.90
25550;DHT22;13444;50.562;7.262;2023-04-01T18:39:34;11.50;99.90
25550;DHT22;13444;50.562;7.262;2023-04-01T18:44:44;11.40;99.90
25550;DHT22;13444;50.562;7.262;2023-04-01T18:52:40;11.30;99.90
25550;DHT22;13444;50.562;7.262;2023-04-01T18:55:23;11.40;99.90
25550;DHT22;13444;50.562;7.262;2023-04-01T18:57:52;11.30;99.90
25550;DHT22;13444;50.562;7.262;2023-04-01T19:00:35;11.30;99.90
25550;DHT22;13444;50.562;7.262;2023-04-01T19:05:53;11.30;99.90
25550;DHT22;13444;50.562;7.262;2023-04-01T19:08:40;11.20;99.90
25550;DHT22;13444;50.562;7.262;2023-04-01T19:11:16;11.20;99.90
25550;DHT22;13444;50.562;7.262;2023-04-01T19:16:43;11.20;99.90
25550;DHT22;13444;50.562;7.262;2023-04-01T19:19:29;11.20;99.90
25550;DHT22;13444;50.562;7.262;2023-04-01T19:22:13;11.20;99.90
25550;DHT22;13444;50.562;7.262;2023-04-01T19:27:37;11.20;99.90
25550;DHT22;13444;50.562;7.262;2023-04-01T19:33:02;11.20;99.90
25550;DHT22;13444;50.562;7.262;2023-04-01T19:35:45;11.10;99.90
25550;DHT22;13444;50.562;7.262;2023-04-01T19:38:37;11.20;99.90
25550;DHT22;13444;50.562;7.262;2023-04-01T19:46:51;11.10;99.90
25550;DHT22;13444;50.562;7.262;2023-04-01T19:52:32;11.10;99.90
25550;DHT22;13444;50.562;7.262;2023-04-01T19:55:26;11.10;99.90
25550;DHT22;13444;50.562;7.262;2023-04-01T19:58:17;11.00;99.90
25550;DHT22;13444;50.562;7.262;2023-04-01T20:01:03;11.00;99.90
25550;DHT22;13444;50.562;7.262;2023-04-01T20:03:48;11.00;99.90
25550;DHT22;13444;50.562;7.262;2023-04-01T20:14:48;11.00;99.90
25550;DHT22;13444;50.562;7.262;2023-04-01T20:17:22;11.00;99.90
25550;DHT22;13444;50.562;7.262;2023-04-01T20:20:03;11.00;99.90
25550;DHT22;13444;50.562;7.262;2023-04-01T20:37:00;10.90;99.90
25550;DHT22;13444;50.562;7.262;2023-04-01T20:39:33;10.90;99.90
25550;DHT22;13444;50.562;7.262;2023-04-01T20:50:59;10.80;99.90
25550;DHT22;13444;50.562;7.262;2023-04-01T20:53:48;10.80;99.90
25550;DHT22;13444;50.562;7.262;2023-04-01T20:56:36;10.80;99.90
25550;DHT22;13444;50.562;7.262;2023-04-01T20:59:32;10.70;99.90
25550;DHT22;13444;50.562;7.262;2023-04-01T21:02:36;10.70;99.90
25550;DHT22;13444;50.562;7.262;2023-04-01T21:05:28;10.70;99.90
25550;DHT22;13444;50.562;7.262;2023-04-01T21:08:51;10.60;99.90
25550;DHT22;13444;50.562;7.262;2023-04-01T21:23:11;10.50;99.90
25550;DHT22;13444;50.562;7.262;2023-04-01T21:26:47;10.40;99.90
25550;DHT22;13444;50.562;7.262;2023-04-01T21:31:41;10.40;99.90
25550;DHT22;13444;50.562;7.262;2023-04-01T21:34:43;10.40;99.90
25550;DHT22;13444;50.562;7.262;2023-04-01T21:57:03;10.40;99.90
25550;DHT22;13444;50.562;7.262;2023-04-01T22:00:12;10.40;99.90
25550;DHT22;13444;50.562;7.262;2023-04-01T22:03:03;10.40;99.90
25550;DHT22;13444;50.562;7.262;2023-04-01T22:05:56;10.40;99.90
25550;DHT22;13444;50.562;7.262;2023-04-01T22:08:38;10.40;99.90
25550;DHT22;13444;50.562;7.262;2023-04-01T22:14:21;10.40;99.90
25550;DHT22;13444;50.562;7.262;2023-04-01T22:17:00;10.40;99.90
25550;DHT22;13444;50.562;7.262;2023-04-01T22:22:55;10.50;99.90
25550;DHT22;13444;50.562;7.262;2023-04-01T22:28:07;10.40;99.90
25550;DHT22;13444;50.562;7.262;2023-04-01T22:30:57;10.40;99.90
25550;DHT22;13444;50.562;7.262;2023-04-01T22:41:49;10.30;99.90
25550;DHT22;13444;50.562;7.262;2023-04-01T22:44:26;10.30;99.90
25550;DHT22;13444;50.562;7.262;2023-04-01T22:47:08;10.30;99.90
25550;DHT22;13444;50.562;7.262;2023-04-01T22:52:38;10.30;99.90
25550;DHT22;13444;50.562;7.262;2023-04-01T22:55:12;10.40;99.90
25550;DHT22;13444;50.562;7.262;2023-04-01T22:57:52;10.40;99.90
25550;DHT22;13444;50.562;7.262;2023-04-01T23:00:39;10.30;99.90
25550;DHT22;13444;50.562;7.262;2023-04-01T23:05:53;10.30;99.90
25550;DHT22;13444;50.562;7.262;2023-04-01T23:10:55;10.30;99.90
25550;DHT22;13444;50.562;7.262;2023-04-01T23:13:31;10.20;99.90
25550;DHT22;13444;50.562;7.262;2023-04-01T23:15:59;10.20;99.90
25550;DHT22;13444;50.562;7.262;2023-04-01T23:18:50;10.20;99.90
25550;DHT22;13444;50.562;7.262;2023-04-01T23:21:38;10.20;99.90
25550;DHT22;13444;50.562;7.262;2023-04-01T23:24:30;10.20;99.90
25550;DHT22;13444;50.562;7.262;2023-04-01T23:27:08;10.20;99.90
25550;DHT22;13444;50.562;7.262;2023-04-01T23:29:37;10.10;99.90
25550;DHT22;13444;50.562;7.262;2023-04-01T23:32:05;10.10;99.90
25550;DHT22;13444;50.562;7.262;2023-04-01T23:34:38;10.00;99.90
25550;DHT22;13444;50.562;7.262;2023-04-01T23:37:08;10.00;99.90
25550;DHT22;13444;50.562;7.262;2023-04-01T23:42:12;10.00;99.90
25550;DHT22;13444;50.562;7.262;2023-04-01T23:44:39;10.00;99.90
25550;DHT22;13444;50.562;7.262;2023-04-01T23:47:06;10.00;99.90
25550;DHT22;13444;50.562;7.262;2023-04-01T23:49:38;10.00;99.90
25550;DHT22;13444;50.562;7.262;2023-04-01T23:52:20;10.00;99.90
25550;DHT22;13444;50.562;7.262;2023-04-01T23:55:03;10.00;99.90
25550;DHT22;13444;50.562;7.262;2023-04-01T23:57:38;9.90;99.90
